createdAt,value
2023-03-23T16:00:13.815Z,1.97
2023-03-23T16:02:43.570Z,1.77
2023-03-23T16:05:13.436Z,1.70
2023-03-23T16:07:42.759Z,1.87
2023-03-23T16:10:17.558Z,1.80
2023-03-23T16:12:45.577Z,1.60
2023-03-23T16:15:14.149Z,1.80
2023-03-23T16:17:42.512Z,1.60
2023-03-23T16:20:14.103Z,1.57
2023-03-23T16:22:43.409Z,1.73
2023-03-23T16:25:11.653Z,1.80
2023-03-23T16:27:40.022Z,1.67
2023-03-23T16:30:16.639Z,1.60
2023-03-23T16:32:46.833Z,1.90
2023-03-23T16:35:15.324Z,1.80
2023-03-23T16:37:47.209Z,2.00
2023-03-23T16:40:16.658Z,1.70
2023-03-23T16:42:44.853Z,1.83
2023-03-23T16:45:14.364Z,1.80
2023-03-23T16:47:43.241Z,1.47
2023-03-23T16:50:14.672Z,1.80
2023-03-23T16:52:46.242Z,1.40
2023-03-23T16:55:17.693Z,1.60
2023-03-23T16:57:45.886Z,1.40
2023-03-23T17:00:20.463Z,1.70
2023-03-23T17:02:51.710Z,1.50
2023-03-23T17:05:21.169Z,1.80
2023-03-23T17:07:49.287Z,1.60
2023-03-23T17:10:19.235Z,1.80
2023-03-23T17:12:47.136Z,1.77
2023-03-23T17:15:15.142Z,1.60
2023-03-23T17:17:43.069Z,1.60
2023-03-23T17:20:12.004Z,1.70
2023-03-23T17:22:41.186Z,1.60
2023-03-23T17:25:10.300Z,1.60
2023-03-23T17:27:39.797Z,1.53
2023-03-23T17:30:09.525Z,1.70
2023-03-23T17:32:37.581Z,1.73
2023-03-23T17:35:06.646Z,2.00
2023-03-23T17:37:36.031Z,1.90
2023-03-23T17:40:04.759Z,1.80
2023-03-23T17:42:32.607Z,1.40
2023-03-23T17:45:01.851Z,1.33
2023-03-23T17:47:30.046Z,2.00
2023-03-23T17:49:58.019Z,1.50
2023-03-23T17:52:26.290Z,1.70
2023-03-23T17:54:54.497Z,1.67
2023-03-23T17:57:22.337Z,1.53
2023-03-23T17:59:50.265Z,1.60
2023-03-23T18:02:19.577Z,1.70
2023-03-23T18:04:47.961Z,1.60
2023-03-23T18:07:16.197Z,1.63
2023-03-23T18:09:45.681Z,1.80
2023-03-23T18:12:13.709Z,1.77
2023-03-23T18:14:41.591Z,1.90
2023-03-23T18:17:09.770Z,1.87
2023-03-23T18:19:39.061Z,1.93
2023-03-23T18:22:06.973Z,1.70
2023-03-23T18:24:34.919Z,1.80
2023-03-23T18:27:02.904Z,1.77
2023-03-23T18:29:30.993Z,1.80
2023-03-23T18:31:58.938Z,1.93
2023-03-23T18:34:27.008Z,1.67
2023-03-23T18:36:56.238Z,1.73
2023-03-23T18:39:24.186Z,1.70
2023-03-23T18:41:52.110Z,1.77
2023-03-23T18:44:20.149Z,1.70
2023-03-23T18:46:48.007Z,1.77
2023-03-23T18:49:16.072Z,1.67
2023-03-23T18:51:44.020Z,1.37
2023-03-23T18:54:13.509Z,1.70
2023-03-23T18:56:41.760Z,1.57
2023-03-23T18:59:09.877Z,1.60
2023-03-23T19:01:37.835Z,1.60
2023-03-23T19:04:06.537Z,1.90
2023-03-23T19:06:35.604Z,1.60
2023-03-23T19:09:03.941Z,1.77
2023-03-23T19:11:33.186Z,1.60
2023-03-23T19:14:03.368Z,2.00
2023-03-23T19:16:32.797Z,1.70
2023-03-23T19:19:02.384Z,1.87
2023-03-23T19:21:31.962Z,1.90
2023-03-23T19:24:00.571Z,1.60
2023-03-23T19:26:33.125Z,1.60
2023-03-23T19:29:25.425Z,1.83
2023-03-23T19:31:52.686Z,2.00
2023-03-23T19:34:21.833Z,1.60
2023-03-23T19:36:55.185Z,1.70
2023-03-23T19:39:27.581Z,1.90
2023-03-23T19:41:58.060Z,1.90
2023-03-23T19:44:30.470Z,1.50
2023-03-23T19:46:59.355Z,2.00
2023-03-23T19:49:30.331Z,1.90
2023-03-23T19:52:09.117Z,1.80
2023-03-23T19:54:39.525Z,1.60
2023-03-23T19:57:08.797Z,1.70
2023-03-23T19:59:39.228Z,1.80
2023-03-23T20:02:07.976Z,1.83
2023-03-23T20:04:42.256Z,2.10
2023-03-23T20:07:12.890Z,1.80
2023-03-23T20:09:41.060Z,1.77
2023-03-23T20:12:10.693Z,1.83
2023-03-23T20:14:45.009Z,1.80
2023-03-23T20:17:19.000Z,1.83
2023-03-23T20:19:46.839Z,1.93
2023-03-23T20:22:15.450Z,2.00
2023-03-23T20:24:45.193Z,1.90
2023-03-23T20:27:16.358Z,1.87
2023-03-23T20:29:50.621Z,2.10
2023-03-23T20:32:26.957Z,2.33
2023-03-23T20:34:57.157Z,2.03
2023-03-23T20:37:26.006Z,2.20
2023-03-23T20:39:55.472Z,3.20
2023-03-23T20:42:23.389Z,2.13
2023-03-23T20:44:52.992Z,2.10
2023-03-23T20:47:21.416Z,2.10
2023-03-23T20:49:53.180Z,1.70
2023-03-23T20:52:21.858Z,1.90
2023-03-23T20:54:50.750Z,2.10
2023-03-23T20:57:19.220Z,2.20
2023-03-23T20:59:47.356Z,2.17
2023-03-23T21:02:18.369Z,2.30
2023-03-23T21:04:47.632Z,2.10
2023-03-23T21:07:18.057Z,2.60
2023-03-23T21:09:45.974Z,2.40
2023-03-23T21:12:13.839Z,2.20
2023-03-23T21:14:42.252Z,2.17
2023-03-23T21:17:10.236Z,2.10
2023-03-23T21:19:39.725Z,2.27
2023-03-23T21:22:09.882Z,1.90
2023-03-23T21:24:38.484Z,2.23
2023-03-23T21:27:06.670Z,2.70
2023-03-23T21:29:34.521Z,1.97
2023-03-23T21:32:08.137Z,2.70
2023-03-23T21:34:37.728Z,2.50
2023-03-23T21:37:07.071Z,2.70
2023-03-23T21:39:35.525Z,2.20
2023-03-23T21:42:04.666Z,2.77
2023-03-23T21:44:34.704Z,2.50
2023-03-23T21:47:03.497Z,3.07
2023-03-23T21:49:31.522Z,3.33
2023-03-23T21:51:59.837Z,2.97
2023-03-23T21:54:30.421Z,3.40
2023-03-23T21:56:58.767Z,2.60
2023-03-23T21:59:27.078Z,2.40
2023-03-23T22:01:58.002Z,2.73
2023-03-23T22:04:27.920Z,2.03
2023-03-23T22:06:56.685Z,2.50
2023-03-23T22:09:24.740Z,2.70
2023-03-23T22:11:54.227Z,2.50
2023-03-23T22:14:22.253Z,2.37
2023-03-23T22:16:50.468Z,3.00
2023-03-23T22:19:18.720Z,2.43
2023-03-23T22:21:46.963Z,2.10
2023-03-23T22:24:15.918Z,2.10
2023-03-23T22:26:44.026Z,2.10
2023-03-23T22:29:14.845Z,2.70
2023-03-23T22:31:42.859Z,2.60
2023-03-23T22:34:12.297Z,2.50
2023-03-23T22:36:41.056Z,2.77
2023-03-23T22:39:10.060Z,2.30
2023-03-23T22:41:41.627Z,2.20
2023-03-23T22:44:13.699Z,2.13
2023-03-23T22:46:42.408Z,1.93
2023-03-23T22:49:10.501Z,2.33
2023-03-23T22:51:38.701Z,2.07
2023-03-23T22:54:07.137Z,2.23
2023-03-23T22:56:37.210Z,2.30
2023-03-23T22:59:05.605Z,2.17
2023-03-23T23:01:36.101Z,2.20
2023-03-23T23:04:05.211Z,2.27
2023-03-23T23:06:33.683Z,2.03
2023-03-23T23:09:01.751Z,2.20
2023-03-23T23:11:29.859Z,1.90
2023-03-23T23:13:58.154Z,2.27
2023-03-23T23:16:27.623Z,2.07
2023-03-23T23:18:57.079Z,1.97
2023-03-23T23:21:28.767Z,1.87
2023-03-23T23:23:56.951Z,2.00
2023-03-23T23:26:25.354Z,2.03
2023-03-23T23:28:53.979Z,2.00
2023-03-23T23:31:26.198Z,2.10
2023-03-23T23:33:57.318Z,2.07
2023-03-23T23:36:29.754Z,2.40
2023-03-23T23:38:58.580Z,2.40
2023-03-23T23:41:27.366Z,2.30
2023-03-23T23:43:55.425Z,2.17
2023-03-23T23:46:23.809Z,2.00
2023-03-23T23:48:51.969Z,2.13
2023-03-23T23:51:21.593Z,2.37
2023-03-23T23:53:53.540Z,2.20
2023-03-23T23:56:22.578Z,2.33
2023-03-23T23:58:50.651Z,2.17
